createdAt,value
2022-09-15T00:01:44.797Z,1.73
2022-09-15T00:04:13.213Z,1.80
2022-09-15T00:06:41.218Z,1.87
2022-09-15T00:09:09.581Z,1.77
2022-09-15T00:11:38.631Z,2.35
2022-09-15T00:14:08.231Z,1.80
2022-09-15T00:16:36.661Z,1.70
2022-09-15T00:19:06.569Z,1.80
2022-09-15T00:21:37.362Z,1.70
2022-09-15T00:24:06.110Z,1.70
2022-09-15T00:26:34.227Z,1.50
2022-09-15T00:29:02.808Z,2.10
2022-09-15T00:31:32.314Z,1.80
2022-09-15T00:34:03.923Z,1.65
2022-09-15T00:36:32.634Z,1.90
2022-09-15T00:39:00.690Z,1.73
2022-09-15T00:41:29.606Z,1.55
2022-09-15T00:44:00.404Z,1.65
2022-09-15T00:46:35.471Z,1.80
2022-09-15T00:49:13.157Z,1.75
2022-09-15T00:51:57.213Z,1.77
2022-09-15T00:54:28.056Z,1.70
2022-09-15T00:57:00.380Z,1.98
2022-09-15T00:59:31.948Z,1.77
2022-09-15T01:02:16.502Z,1.73
2022-09-15T01:04:45.040Z,1.60
2022-09-15T01:07:23.733Z,2.03
2022-09-15T01:10:06.803Z,1.70
2022-09-15T01:12:35.661Z,1.60
2022-09-15T01:15:04.044Z,1.60
2022-09-15T01:17:53.222Z,1.70
2022-09-15T01:20:36.797Z,1.45
2022-09-15T01:23:36.920Z,1.58
2022-09-15T01:26:47.280Z,1.83
2022-09-15T01:29:36.806Z,1.60
2022-09-15T01:32:55.001Z,1.58
2022-09-15T01:35:33.507Z,1.50
2022-09-15T01:38:12.847Z,1.73
2022-09-15T01:40:48.897Z,1.65
2022-09-15T01:43:21.027Z,1.77
2022-09-15T01:45:50.661Z,1.60
2022-09-15T01:48:22.578Z,1.60
2022-09-15T01:50:55.549Z,1.48
2022-09-15T01:53:24.691Z,1.62
2022-09-15T01:56:10.303Z,1.98
2022-09-15T01:58:40.603Z,1.77
2022-09-15T02:01:17.220Z,1.48
2022-09-15T02:03:55.562Z,1.62
2022-09-15T02:06:50.123Z,1.42
2022-09-15T02:09:26.346Z,1.73
2022-09-15T02:12:07.866Z,1.60
2022-09-15T02:15:05.548Z,1.60
2022-09-15T02:17:42.623Z,1.87
2022-09-15T02:20:15.585Z,2.00
2022-09-15T02:22:50.461Z,1.70
2022-09-15T02:25:24.519Z,1.62
2022-09-15T02:27:56.533Z,1.40
2022-09-15T02:30:25.375Z,1.83
2022-09-15T02:32:58.217Z,1.50
2022-09-15T02:35:28.802Z,1.30
2022-09-15T02:37:58.077Z,1.58
2022-09-15T02:40:28.405Z,1.43
2022-09-15T02:42:58.130Z,1.55
2022-09-15T02:45:27.044Z,1.55
2022-09-15T02:47:54.863Z,1.70
2022-09-15T02:50:22.632Z,1.80
2022-09-15T02:52:50.845Z,1.60
2022-09-15T02:55:18.761Z,1.60
2022-09-15T02:57:46.660Z,1.73
2022-09-15T03:00:17.447Z,1.73
2022-09-15T03:02:50.162Z,1.58
2022-09-15T03:05:21.387Z,1.58
2022-09-15T03:07:49.913Z,1.30
2022-09-15T03:10:18.771Z,1.73
2022-09-15T03:12:51.701Z,1.40
2022-09-15T03:15:24.007Z,1.70
2022-09-15T03:17:53.158Z,1.67
2022-09-15T03:20:26.112Z,1.50
2022-09-15T03:22:54.649Z,1.80
2022-09-15T03:25:23.613Z,1.58
2022-09-15T03:27:51.340Z,1.80
2022-09-15T03:30:19.319Z,1.80
2022-09-15T03:32:47.503Z,1.45
2022-09-15T03:35:20.100Z,1.50
2022-09-15T03:37:48.279Z,1.83
2022-09-15T03:40:17.013Z,1.52
2022-09-15T03:42:44.864Z,1.62
2022-09-15T03:45:13.363Z,1.35
2022-09-15T03:47:41.074Z,1.42
2022-09-15T03:50:09.515Z,1.80
2022-09-15T03:52:37.600Z,1.87
2022-09-15T03:55:05.908Z,2.20
2022-09-15T03:57:33.847Z,1.70
2022-09-15T04:00:02.862Z,1.83
2022-09-15T04:02:32.986Z,1.77
2022-09-15T04:05:02.732Z,1.75
2022-09-15T04:07:30.663Z,1.67
2022-09-15T04:09:59.116Z,1.80
2022-09-15T04:12:27.238Z,1.73
2022-09-15T04:14:56.154Z,1.58
2022-09-15T04:17:24.237Z,1.92
2022-09-15T04:19:52.359Z,1.70
2022-09-15T04:22:20.662Z,1.65
2022-09-15T04:24:50.172Z,1.83
2022-09-15T04:27:18.965Z,1.75
2022-09-15T04:29:50.365Z,2.05
2022-09-15T04:32:19.606Z,1.90
2022-09-15T04:34:47.661Z,1.83
2022-09-15T04:37:15.569Z,1.62
2022-09-15T04:39:44.604Z,2.20
2022-09-15T04:42:12.405Z,1.77
2022-09-15T04:44:40.307Z,1.90
2022-09-15T04:47:08.615Z,2.22
2022-09-15T04:49:36.838Z,2.03
2022-09-15T04:52:09.448Z,1.80
2022-09-15T04:54:38.097Z,2.00
2022-09-15T04:57:06.145Z,2.10
2022-09-15T04:59:34.466Z,2.15
2022-09-15T05:02:03.407Z,1.87
2022-09-15T05:04:31.308Z,2.05
2022-09-15T05:06:59.168Z,2.03
2022-09-15T05:09:29.538Z,2.00
2022-09-15T05:11:57.825Z,1.80
2022-09-15T05:14:25.510Z,1.90
2022-09-15T05:16:53.881Z,1.95
2022-09-15T05:19:21.713Z,1.85
2022-09-15T05:21:49.502Z,1.75
2022-09-15T05:24:17.731Z,1.92
2022-09-15T05:26:45.657Z,1.75
2022-09-15T05:29:13.887Z,2.10
2022-09-15T05:31:42.785Z,1.90
2022-09-15T05:34:11.370Z,1.73
2022-09-15T05:36:39.532Z,2.03
2022-09-15T05:39:08.141Z,1.83
2022-09-15T05:41:35.972Z,1.80
2022-09-15T05:44:03.973Z,1.80
2022-09-15T05:46:32.247Z,1.98
2022-09-15T05:49:00.405Z,1.85
2022-09-15T05:51:29.909Z,1.87
2022-09-15T05:53:58.162Z,2.05
2022-09-15T05:56:26.450Z,2.12
2022-09-15T05:58:54.698Z,1.80
2022-09-15T06:01:25.525Z,1.65
2022-09-15T06:03:54.740Z,1.83
2022-09-15T06:06:23.991Z,1.62
2022-09-15T06:08:58.019Z,1.87
2022-09-15T06:11:30.066Z,1.92
2022-09-15T06:14:03.684Z,1.92
2022-09-15T06:16:35.596Z,1.48
2022-09-15T06:19:03.899Z,1.60
2022-09-15T06:21:33.173Z,1.70
2022-09-15T06:24:04.564Z,1.58
2022-09-15T06:26:33.844Z,1.95
2022-09-15T06:29:05.636Z,1.60
2022-09-15T06:31:34.607Z,2.10
2022-09-15T06:34:04.069Z,1.80
2022-09-15T06:36:32.905Z,1.92
2022-09-15T06:39:01.579Z,1.60
2022-09-15T06:41:42.648Z,1.90
2022-09-15T06:44:21.495Z,1.92
2022-09-15T06:46:49.583Z,2.00
2022-09-15T06:49:17.856Z,1.80
2022-09-15T06:51:46.274Z,1.92
2022-09-15T06:54:16.072Z,1.90
2022-09-15T06:56:44.312Z,2.17
2022-09-15T06:59:13.817Z,2.15
2022-09-15T07:01:42.060Z,1.90
2022-09-15T07:04:10.493Z,1.77
2022-09-15T07:06:39.483Z,1.90
2022-09-15T07:09:07.548Z,2.10
2022-09-15T07:11:35.727Z,2.00
2022-09-15T07:14:04.546Z,2.10
2022-09-15T07:16:32.761Z,1.90
2022-09-15T07:19:03.323Z,2.10
2022-09-15T07:21:31.554Z,2.33
2022-09-15T07:24:03.706Z,1.77
2022-09-15T07:26:35.202Z,2.30
2022-09-15T07:29:06.157Z,2.03
2022-09-15T07:31:37.839Z,2.08
2022-09-15T07:34:06.952Z,2.03
2022-09-15T07:36:36.298Z,1.70
2022-09-15T07:39:05.265Z,1.80
2022-09-15T07:41:33.388Z,2.00
2022-09-15T07:44:01.960Z,1.77
2022-09-15T07:46:32.199Z,1.67
2022-09-15T07:49:00.928Z,1.50
2022-09-15T07:51:29.331Z,1.95
2022-09-15T07:53:57.588Z,2.08
2022-09-15T07:56:25.989Z,1.60
2022-09-15T07:58:54.818Z,1.77
2022-09-15T08:01:23.345Z,1.80
2022-09-15T08:03:52.867Z,1.55
2022-09-15T08:06:23.878Z,1.37
2022-09-15T08:11:28.601Z,1.55
2022-09-15T08:13:56.944Z,1.40
2022-09-15T08:16:24.894Z,1.70
2022-09-15T08:18:54.100Z,1.55
2022-09-15T08:21:23.194Z,1.80
2022-09-15T08:23:59.362Z,1.50
2022-09-15T08:26:29.155Z,1.52
2022-09-15T08:28:58.016Z,1.30
2022-09-15T08:31:25.879Z,1.60
2022-09-15T08:33:55.670Z,1.20
2022-09-15T08:36:24.603Z,1.50
2022-09-15T08:38:52.502Z,1.30
2022-09-15T08:41:34.091Z,1.48
2022-09-15T08:44:17.263Z,1.40
2022-09-15T08:46:54.445Z,1.40
2022-09-15T08:49:52.516Z,1.80
2022-09-15T08:52:28.597Z,1.40
2022-09-15T08:54:58.560Z,1.60
2022-09-15T08:57:26.855Z,1.50
2022-09-15T08:59:55.594Z,1.70
2022-09-15T09:02:36.910Z,1.52
2022-09-15T09:05:20.290Z,1.23
2022-09-15T09:08:21.616Z,1.50
2022-09-15T09:10:54.399Z,1.15
2022-09-15T09:13:40.102Z,1.30
2022-09-15T09:16:20.493Z,2.10
2022-09-15T09:19:13.094Z,1.30
2022-09-15T09:21:50.616Z,1.35
2022-09-15T09:24:41.647Z,1.25
2022-09-15T09:27:25.292Z,1.30
2022-09-15T09:30:01.026Z,1.20
2022-09-15T09:32:45.514Z,1.27
2022-09-15T09:35:24.912Z,1.00
2022-09-15T09:37:56.726Z,1.20
2022-09-15T09:40:24.718Z,1.77
2022-09-15T09:42:52.855Z,1.20
2022-09-15T09:45:22.783Z,1.35
2022-09-15T09:47:50.567Z,1.10
2022-09-15T09:50:38.968Z,1.12
2022-09-15T09:53:25.775Z,0.98
2022-09-15T09:55:55.332Z,1.12
2022-09-15T09:58:25.476Z,1.08
2022-09-15T10:00:53.715Z,1.40
2022-09-15T10:03:28.147Z,1.00
2022-09-15T10:06:01.631Z,1.12
2022-09-15T10:08:29.865Z,1.00
2022-09-15T10:11:11.053Z,0.95
2022-09-15T10:13:52.653Z,1.05
2022-09-15T10:16:22.645Z,1.20
2022-09-15T10:18:54.159Z,1.00
2022-09-15T10:21:24.962Z,1.08
2022-09-15T10:23:53.274Z,1.23
2022-09-15T10:26:33.856Z,1.02
2022-09-15T10:29:17.258Z,1.00
2022-09-15T10:34:31.138Z,1.20
2022-09-15T10:37:27.157Z,1.17
2022-09-15T10:39:59.632Z,1.20
2022-09-15T10:43:05.938Z,1.02
2022-09-15T10:45:39.760Z,1.08
2022-09-15T10:48:13.476Z,1.02
2022-09-15T10:51:33.193Z,1.00
2022-09-15T10:54:35.403Z,1.00
2022-09-15T10:57:07.335Z,1.00
2022-09-15T11:00:00.014Z,1.12
2022-09-15T11:02:56.067Z,1.55
2022-09-15T11:05:39.304Z,1.58
2022-09-15T11:08:22.705Z,1.62
2022-09-15T11:11:18.223Z,1.42
2022-09-15T11:13:56.582Z,1.30
2022-09-15T11:16:33.299Z,1.30
2022-09-15T11:19:29.182Z,1.37
2022-09-15T11:22:13.424Z,1.30
2022-09-15T11:24:48.077Z,1.50
2022-09-15T11:27:31.012Z,1.30
2022-09-15T11:30:16.488Z,1.37
2022-09-15T11:33:00.108Z,1.42
2022-09-15T11:35:37.166Z,1.30
2022-09-15T11:38:21.620Z,1.30
2022-09-15T11:40:59.458Z,1.65
2022-09-15T11:43:45.985Z,1.12
2022-09-15T11:46:24.171Z,1.33
2022-09-15T11:49:01.362Z,1.45
2022-09-15T11:51:39.099Z,1.37
2022-09-15T11:54:21.393Z,1.87
2022-09-15T11:56:51.096Z,1.60
2022-09-15T11:59:23.197Z,1.40
2022-09-15T12:02:09.331Z,1.10
2022-09-15T12:05:05.049Z,1.30
2022-09-15T12:07:39.420Z,1.30
2022-09-15T12:10:41.597Z,1.20
2022-09-15T12:13:18.325Z,1.20
2022-09-15T12:15:47.783Z,1.25
2022-09-15T12:18:46.673Z,1.10
2022-09-15T12:21:37.501Z,1.35
2022-09-15T12:24:14.862Z,1.40
2022-09-15T12:26:46.688Z,1.40
2022-09-15T12:29:26.942Z,1.20
2022-09-15T12:32:19.387Z,1.33
2022-09-15T12:35:13.839Z,1.20
2022-09-15T12:37:49.191Z,1.40
2022-09-15T12:40:44.131Z,1.25
2022-09-15T12:43:16.032Z,1.40
2022-09-15T12:45:57.751Z,1.20
2022-09-15T12:48:31.446Z,1.40
2022-09-15T12:51:05.886Z,1.42
2022-09-15T12:53:37.879Z,1.48
2022-09-15T12:56:21.221Z,1.30
2022-09-15T12:58:50.933Z,1.25
2022-09-15T13:01:19.080Z,1.30
2022-09-15T13:03:48.912Z,1.20
2022-09-15T13:06:31.098Z,1.33
2022-09-15T13:09:01.711Z,1.33
2022-09-15T13:11:50.229Z,1.30
2022-09-15T13:14:38.223Z,1.37
2022-09-15T13:17:14.384Z,1.52
2022-09-15T13:19:46.873Z,1.23
2022-09-15T13:22:24.286Z,1.10
2022-09-15T13:25:02.150Z,1.33
2022-09-15T13:27:41.036Z,1.60
2022-09-15T13:30:21.239Z,1.37
2022-09-15T13:35:52.220Z,1.30
2022-09-15T13:38:30.855Z,1.10
2022-09-15T13:41:34.211Z,1.20
2022-09-15T13:44:19.303Z,1.15
2022-09-15T13:46:54.661Z,1.35
2022-09-15T13:49:41.241Z,1.48
2022-09-15T13:52:22.422Z,1.30
2022-09-15T13:55:17.833Z,1.20
2022-09-15T14:00:59.403Z,1.20
2022-09-15T14:03:42.484Z,1.27
2022-09-15T14:06:13.727Z,1.27
2022-09-15T14:08:44.120Z,1.40
2022-09-15T14:11:17.253Z,1.30
2022-09-15T14:13:47.741Z,1.30
2022-09-15T14:16:34.009Z,1.50
2022-09-15T14:19:21.060Z,1.40
2022-09-15T14:21:52.833Z,1.12
2022-09-15T14:24:28.884Z,1.50
2022-09-15T14:27:07.360Z,1.52
2022-09-15T14:29:40.701Z,1.37
2022-09-15T14:32:14.974Z,1.05
2022-09-15T14:34:44.660Z,1.27
2022-09-15T14:37:24.070Z,1.10
2022-09-15T14:39:57.267Z,1.20
2022-09-15T14:42:36.445Z,1.30
2022-09-15T14:48:03.077Z,1.12
2022-09-15T14:50:33.508Z,1.02
2022-09-15T14:53:10.477Z,1.10
2022-09-15T14:55:50.431Z,0.90
2022-09-15T14:58:27.377Z,0.90
2022-09-15T15:00:55.226Z,1.00
2022-09-15T15:03:46.212Z,1.02
2022-09-15T15:06:30.068Z,0.80
2022-09-15T15:09:03.594Z,1.12
2022-09-15T15:11:33.907Z,0.90
2022-09-15T15:14:06.058Z,1.20
2022-09-15T15:16:34.253Z,1.00
2022-09-15T15:19:01.877Z,1.15
2022-09-15T15:21:32.163Z,1.62
2022-09-15T15:24:00.244Z,1.00
2022-09-15T15:26:40.832Z,1.20
2022-09-15T15:29:54.699Z,1.10
2022-09-15T15:32:25.131Z,1.08
2022-09-15T15:35:01.194Z,1.17
2022-09-15T15:37:31.656Z,1.65
2022-09-15T15:40:05.223Z,1.40
2022-09-15T15:42:33.433Z,1.27
2022-09-15T15:45:13.492Z,1.30
2022-09-15T15:47:41.144Z,1.20
2022-09-15T15:50:15.521Z,1.58
2022-09-15T15:52:44.042Z,1.50
2022-09-15T15:55:17.405Z,1.25
2022-09-15T15:57:47.819Z,1.10
2022-09-15T16:00:22.110Z,1.70
2022-09-15T16:02:53.544Z,1.50
2022-09-15T16:05:25.370Z,1.98
2022-09-15T16:07:56.181Z,1.45
2022-09-15T16:10:30.104Z,1.60
2022-09-15T16:12:58.147Z,1.95
2022-09-15T16:15:26.913Z,2.05
2022-09-15T16:17:54.494Z,1.87
2022-09-15T16:20:24.800Z,2.67
2022-09-15T16:22:52.438Z,2.47
2022-09-15T16:25:52.330Z,1.75
2022-09-15T16:28:20.643Z,1.75
2022-09-15T16:30:50.715Z,2.37
2022-09-15T16:33:18.941Z,2.05
2022-09-15T16:35:55.048Z,2.30
2022-09-15T16:38:26.002Z,2.10
2022-09-15T16:40:54.073Z,2.92
2022-09-15T16:43:22.521Z,3.40
2022-09-15T16:45:51.178Z,2.30
2022-09-15T16:48:19.610Z,1.67
2022-09-15T16:53:37.609Z,1.58
2022-09-15T16:56:07.604Z,1.30
2022-09-15T16:58:35.228Z,1.35
2022-09-15T17:01:03.497Z,1.25
2022-09-15T17:03:31.404Z,1.73
2022-09-15T17:06:01.223Z,1.52
2022-09-15T17:08:31.625Z,2.03
2022-09-15T17:11:04.733Z,0.98
2022-09-15T17:13:34.357Z,1.25
2022-09-15T17:16:02.210Z,1.30
2022-09-15T17:18:30.329Z,1.37
2022-09-15T17:20:59.011Z,1.33
2022-09-15T17:23:39.099Z,1.10
2022-09-15T17:26:11.759Z,1.23
2022-09-15T17:28:40.291Z,1.33
2022-09-15T17:31:23.145Z,1.60
2022-09-15T17:33:51.531Z,0.95
2022-09-15T17:36:19.814Z,1.10
2022-09-15T17:38:48.935Z,1.00
2022-09-15T17:41:19.692Z,1.00
2022-09-15T17:43:47.637Z,1.02
2022-09-15T17:46:15.406Z,1.05
2022-09-15T17:48:43.332Z,1.12
2022-09-15T17:51:19.306Z,1.00
2022-09-15T17:53:47.784Z,0.90
2022-09-15T17:56:16.687Z,1.05
2022-09-15T17:58:44.511Z,0.80
2022-09-15T18:01:13.465Z,0.70
2022-09-15T18:03:43.288Z,0.80
2022-09-15T18:06:11.513Z,0.82
2022-09-15T18:08:39.264Z,1.20
2022-09-15T18:11:07.428Z,1.10
2022-09-15T18:13:35.150Z,1.00
2022-09-15T18:16:07.790Z,1.40
2022-09-15T18:18:36.128Z,0.90
2022-09-15T18:21:12.284Z,0.90
2022-09-15T18:23:42.442Z,1.10
2022-09-15T18:26:10.113Z,1.00
2022-09-15T18:28:37.689Z,0.85
2022-09-15T18:31:05.960Z,1.27
2022-09-15T18:33:33.662Z,0.80
2022-09-15T18:36:01.551Z,1.17
2022-09-15T18:38:29.484Z,1.00
2022-09-15T18:40:57.314Z,1.00
2022-09-15T18:43:27.325Z,1.00
2022-09-15T18:46:00.069Z,1.00
2022-09-15T18:48:28.399Z,0.98
2022-09-15T18:50:56.770Z,0.73
2022-09-15T18:53:24.966Z,0.80
2022-09-15T18:55:52.834Z,1.25
2022-09-15T18:58:22.445Z,1.17
2022-09-15T19:00:50.432Z,1.00
2022-09-15T19:03:18.447Z,1.05
2022-09-15T19:05:46.403Z,1.12
2022-09-15T19:08:14.075Z,1.37
2022-09-15T19:10:44.163Z,1.10
2022-09-15T19:13:14.180Z,1.40
2022-09-15T19:15:44.009Z,1.30
2022-09-15T19:18:12.139Z,0.98
2022-09-15T19:20:40.427Z,1.33
2022-09-15T19:23:09.413Z,1.35
2022-09-15T19:25:37.790Z,1.37
2022-09-15T19:28:05.495Z,1.48
2022-09-15T19:30:33.454Z,1.60
2022-09-15T19:33:05.139Z,1.20
2022-09-15T19:35:32.741Z,1.30
2022-09-15T19:38:00.405Z,1.20
2022-09-15T19:40:28.969Z,1.10
2022-09-15T19:42:56.703Z,1.50
2022-09-15T19:45:24.369Z,1.30
2022-09-15T19:47:52.417Z,1.20
2022-09-15T19:50:20.180Z,1.20
2022-09-15T19:52:47.731Z,1.25
2022-09-15T19:55:15.637Z,1.42
2022-09-15T19:57:43.322Z,1.52
2022-09-15T20:00:14.680Z,1.62
2022-09-15T20:02:46.661Z,1.80
2022-09-15T20:05:14.409Z,1.65
2022-09-15T20:07:42.297Z,1.60
2022-09-15T20:10:10.630Z,1.60
2022-09-15T20:12:38.366Z,1.35
2022-09-15T20:15:07.055Z,1.73
2022-09-15T20:17:34.630Z,1.55
2022-09-15T20:20:03.067Z,1.98
2022-09-15T20:22:31.134Z,1.40
2022-09-15T20:24:58.768Z,1.70
2022-09-15T20:27:26.257Z,1.92
2022-09-15T20:29:54.670Z,1.77
2022-09-15T20:32:27.585Z,1.60
2022-09-15T20:37:37.882Z,1.87
2022-09-15T20:40:08.460Z,1.65
2022-09-15T20:42:36.855Z,1.80
2022-09-15T20:45:05.028Z,1.62
2022-09-15T20:47:32.984Z,1.65
2022-09-15T20:50:01.358Z,1.60
2022-09-15T20:52:34.769Z,1.37
2022-09-15T20:55:05.756Z,1.83
2022-09-15T20:57:33.508Z,1.50
2022-09-15T21:00:01.993Z,1.50
2022-09-15T21:02:32.468Z,1.45
2022-09-15T21:05:00.100Z,1.42
2022-09-15T21:07:27.614Z,1.67
2022-09-15T21:09:55.820Z,1.35
2022-09-15T21:12:23.326Z,1.67
2022-09-15T21:14:51.717Z,1.27
2022-09-15T21:17:19.906Z,1.50
2022-09-15T21:19:48.663Z,1.40
2022-09-15T21:22:16.147Z,1.20
2022-09-15T21:24:44.075Z,1.35
2022-09-15T21:27:26.960Z,1.70
2022-09-15T21:29:54.874Z,1.50
2022-09-15T21:32:22.491Z,1.55
2022-09-15T21:34:50.104Z,1.40
2022-09-15T21:37:18.041Z,1.60
2022-09-15T21:39:46.178Z,1.60
2022-09-15T21:42:14.116Z,1.48
2022-09-15T21:44:45.285Z,1.50
2022-09-15T21:47:12.796Z,1.60
2022-09-15T21:49:40.471Z,1.50
2022-09-15T21:52:08.354Z,1.70
2022-09-15T21:54:35.887Z,1.92
2022-09-15T21:57:03.583Z,1.70
2022-09-15T21:59:31.472Z,1.70
2022-09-15T22:01:59.073Z,1.48
2022-09-15T22:04:26.919Z,1.62
2022-09-15T22:06:54.384Z,1.60
2022-09-15T22:09:23.447Z,1.80
2022-09-15T22:11:51.328Z,1.60
2022-09-15T22:14:18.974Z,2.00
2022-09-15T22:16:46.712Z,1.90
2022-09-15T22:19:14.596Z,2.20
2022-09-15T22:21:42.603Z,1.75
2022-09-15T22:24:12.977Z,1.85
2022-09-15T22:29:09.748Z,1.85
2022-09-15T22:31:37.954Z,2.20
2022-09-15T22:34:05.858Z,1.90
2022-09-15T22:36:33.969Z,1.80
2022-09-15T22:39:05.452Z,1.92
2022-09-15T22:41:36.054Z,1.90
2022-09-15T22:44:04.983Z,2.25
2022-09-15T22:46:33.012Z,1.90
2022-09-15T22:49:00.505Z,2.15
2022-09-15T22:51:28.113Z,2.22
2022-09-15T22:53:57.379Z,1.87
2022-09-15T22:56:26.535Z,2.10
2022-09-15T22:58:55.675Z,2.22
2022-09-15T23:01:26.978Z,2.05
2022-09-15T23:06:25.549Z,2.20
2022-09-15T23:08:58.491Z,2.10
2022-09-15T23:11:28.341Z,2.10
2022-09-15T23:13:56.402Z,2.40
2022-09-15T23:16:25.617Z,2.17
2022-09-15T23:18:54.413Z,2.10
2022-09-15T23:21:22.486Z,2.00
2022-09-15T23:23:50.576Z,3.05
2022-09-15T23:26:20.472Z,2.20
2022-09-15T23:28:49.573Z,2.17
2022-09-15T23:31:17.760Z,1.95
2022-09-15T23:33:46.116Z,2.37
2022-09-15T23:36:15.963Z,2.10
2022-09-15T23:38:45.057Z,2.10
2022-09-15T23:41:13.956Z,2.22
2022-09-15T23:43:41.890Z,2.25
2022-09-15T23:46:09.951Z,1.98
2022-09-15T23:48:38.111Z,2.15
2022-09-15T23:51:09.014Z,2.60
2022-09-15T23:53:36.878Z,2.50
2022-09-15T23:56:05.000Z,2.28
2022-09-15T23:58:32.757Z,2.42
